Time;durP1;ratioP1;P1;durP2;ratioP2;P2;SDS_P1;SDS_P2;PMS_P1;PMS_P2;Temp;Humidity;BMP_temperature;BMP_pressure;BME280_temperature;BME280_humidity;BME280_pressure;Samples;Min_cycle;Max_cycle;Signal;HPM_P1;HPM_P2
2022/07/21 00:00:34;;;;;;;0.93;0.90;;;19.50;99.90;19.40;101618.00;;;;5077780;28;20265;-69
2022/07/21 00:03:40;;;;;;;2.87;2.60;;;19.20;99.90;19.50;101616.00;;;;5077711;28;20577;-69
2022/07/21 00:06:26;;;;;;;0.70;0.70;;;19.30;99.90;19.50;101582.00;;;;5050723;28;20208;-70
2022/07/21 00:09:12;;;;;;;1.53;1.43;;;19.20;99.90;19.20;101566.00;;;;5077745;28;20182;-69
2022/07/21 00:12:03;;;;;;;0.50;0.50;;;19.20;99.90;19.30;101617.00;;;;5077775;28;20687;-69
2022/07/21 00:15:14;;;;;;;0.40;0.40;;;19.00;99.90;19.30;101603.00;;;;5077904;28;20261;-70
2022/07/21 00:17:51;;;;;;;0.43;0.43;;;19.10;99.90;19.60;101605.00;;;;5077703;28;20687;-70
2022/07/21 00:20:35;;;;;;;0.83;0.83;;;19.10;99.90;19.80;101604.00;;;;5077463;28;20177;-71
2022/07/21 00:23:30;;;;;;;0.80;0.80;;;19.30;99.90;19.80;101606.00;;;;5077310;28;20606;-71
2022/07/21 00:26:16;;;;;;;0.50;0.50;;;19.30;99.90;19.50;101590.00;;;;5067763;28;20661;-71
2022/07/21 00:29:07;;;;;;;0.50;0.50;;;19.20;99.90;19.80;101600.00;;;;5077634;28;20184;-70
2022/07/21 00:31:53;;;;;;;0.50;0.50;;;19.20;99.90;19.90;101599.00;;;;5077039;28;20210;-70
2022/07/21 00:34:37;;;;;;;1.40;1.40;;;19.20;99.90;20.10;101590.00;;;;5077085;28;20193;-70
2022/07/21 00:37:23;;;;;;;0.50;0.50;;;19.30;99.90;19.50;101599.00;;;;5060604;28;20629;-71
2022/07/21 00:40:09;;;;;;;0.50;0.50;;;19.20;99.90;19.70;101602.00;;;;5077439;28;20173;-70
2022/07/21 00:42:53;;;;;;;0.50;0.50;;;19.20;99.90;19.40;101609.00;;;;5077124;28;20558;-70
2022/07/21 00:45:41;;;;;;;0.40;0.40;;;19.10;99.90;19.20;101598.00;;;;5076978;28;20180;-70
2022/07/21 00:48:27;;;;;;;0.50;0.50;;;18.90;99.90;18.90;101604.00;;;;5062328;28;20628;-70
2022/07/21 00:51:16;;;;;;;0.50;0.50;;;18.80;99.90;19.00;101608.00;;;;5077035;28;20299;-70
2022/07/21 00:54:00;;;;;;;0.50;0.50;;;18.70;99.90;18.80;101601.00;;;;5062257;28;20182;-71
2022/07/21 00:57:04;;;;;;;0.60;0.60;;;18.70;99.90;18.90;101599.00;;;;5059425;28;20189;-70
2022/07/21 00:59:49;;;;;;;0.60;0.60;;;18.60;99.90;19.10;101564.00;;;;5044897;28;20307;-70
2022/07/21 01:02:38;;;;;;;0.50;0.50;;;18.60;99.90;19.60;101562.00;;;;5076570;28;20239;-70
2022/07/21 01:05:22;;;;;;;0.50;0.50;;;18.90;99.90;19.40;101576.00;;;;5060176;28;20196;-70
2022/07/21 01:08:14;;;;;;;0.50;0.50;;;18.90;99.90;18.80;101596.00;;;;5076378;28;20178;-70
2022/07/21 01:11:01;;;;;;;0.40;0.40;;;18.70;99.90;19.20;101615.00;;;;5076649;28;20181;-70
2022/07/21 01:13:47;;;;;;;0.50;0.50;;;18.70;99.90;18.90;101574.00;;;;5076431;28;20185;-70
2022/07/21 01:16:34;;;;;;;0.50;0.50;;;18.60;99.90;18.90;101606.00;;;;5076273;28;20237;-70
2022/07/21 01:19:19;;;;;;;0.50;0.50;;;18.70;99.90;19.00;101569.00;;;;5076576;28;20188;-71
2022/07/21 01:22:23;;;;;;;0.97;0.97;;;18.60;99.90;19.40;101596.00;;;;5076101;28;20184;-70
2022/07/21 01:25:08;;;;;;;0.53;0.53;;;18.70;99.90;19.50;101600.00;;;;5079792;28;20197;-70
2022/07/21 01:27:52;;;;;;;0.50;0.50;;;18.90;99.90;19.10;101585.00;;;;5096523;28;20536;-69
2022/07/21 01:30:41;;;;;;;0.60;0.60;;;18.80;99.90;19.30;101596.00;;;;5079557;28;20193;-70
2022/07/21 01:33:27;;;;;;;0.50;0.50;;;18.80;99.90;19.50;101605.00;;;;5064423;28;20222;-70
2022/07/21 01:36:13;;;;;;;0.60;0.60;;;18.90;99.90;19.60;101597.00;;;;5079265;28;20188;-70
2022/07/21 01:42:14;;;;;;;0.50;0.50;;;18.90;99.90;18.80;101571.00;;;;5087384;28;20275;-69
2022/07/21 01:45:04;;;;;;;0.50;0.50;;;18.70;99.90;19.10;101606.00;;;;5065509;28;20213;-70
2022/07/21 01:47:53;;;;;;;0.50;0.50;;;18.60;99.90;19.20;101595.00;;;;5079639;28;20268;-70
2022/07/21 01:50:39;;;;;;;0.50;0.50;;;18.70;99.90;19.00;101603.00;;;;5071353;28;20238;-70
2022/07/21 01:53:25;;;;;;;0.50;0.50;;;18.60;99.90;18.50;101585.00;;;;5072480;28;20199;-70
2022/07/21 01:56:19;;;;;;;0.50;0.50;;;18.40;99.90;18.60;101584.00;;;;5055537;28;20661;-70
2022/07/21 01:59:04;;;;;;;0.47;0.47;;;18.30;99.90;18.40;101561.00;;;;5055924;28;20219;-70
2022/07/21 02:01:50;;;;;;;0.40;0.40;;;18.20;99.90;18.50;101602.00;;;;5055335;28;20227;-70
2022/07/21 02:04:54;;;;;;;0.50;0.50;;;18.20;99.90;18.70;101600.00;;;;5055386;28;20237;-70
2022/07/21 02:07:37;;;;;;;0.50;0.50;;;18.30;99.90;18.60;101599.00;;;;5059660;28;20178;-70
2022/07/21 02:10:21;;;;;;;0.50;0.50;;;18.30;99.90;18.50;101597.00;;;;5055959;28;20285;-69
2022/07/21 02:13:10;;;;;;;1.43;1.43;;;18.20;99.90;18.60;101607.00;;;;5055381;28;20214;-70
2022/07/21 02:15:57;;;;;;;4.53;2.93;;;18.30;99.90;18.50;101605.00;;;;5041109;28;20198;-69
2022/07/21 02:18:41;;;;;;;0.50;0.50;;;18.30;99.90;18.80;101606.00;;;;5055355;28;20231;-70
2022/07/21 02:21:27;;;;;;;0.47;0.47;;;18.40;99.90;18.50;101604.00;;;;5055771;28;20186;-70
2022/07/21 02:24:24;;;;;;;0.60;0.60;;;18.30;99.90;18.40;101617.00;;;;5055423;28;20249;-70
2022/07/21 02:27:30;;;;;;;0.60;0.60;;;18.30;99.90;18.40;101568.00;;;;5035296;28;20190;-70
2022/07/21 02:30:14;;;;;;;0.60;0.60;;;18.20;99.90;18.20;101599.00;;;;5040168;28;20284;-70
2022/07/21 02:32:57;;;;;;;0.50;0.50;;;18.10;99.90;18.40;101608.00;;;;5035040;28;20217;-69
2022/07/21 02:35:46;;;;;;;0.40;0.40;;;18.20;99.90;18.40;101592.00;;;;5035074;28;20513;-70
2022/07/21 02:38:33;;;;;;;0.40;0.40;;;18.10;99.90;18.60;101602.00;;;;5020725;28;20186;-69
2022/07/21 02:41:19;;;;;;;0.70;0.70;;;18.30;99.90;18.50;101588.00;;;;5035443;28;20182;-69
2022/07/21 02:44:04;;;;;;;0.50;0.50;;;18.20;99.90;18.60;101591.00;;;;5051873;28;20172;-69
2022/07/21 02:46:54;;;;;;;0.60;0.60;;;18.20;99.90;18.50;101582.00;;;;5052219;28;20188;-69
2022/07/21 02:49:46;;;;;;;1.63;1.60;;;18.20;99.90;18.50;101581.00;;;;5037376;28;20192;-69
2022/07/21 02:52:31;;;;;;;1.67;1.67;;;18.20;99.90;18.40;101549.00;;;;5051665;28;20203;-69
2022/07/21 02:55:16;;;;;;;0.60;0.60;;;18.10;99.90;18.30;101569.00;;;;5035325;28;20647;-69
2022/07/21 02:58:13;;;;;;;0.60;0.60;;;18.10;99.90;18.30;101568.00;;;;5051919;28;20181;-69
2022/07/21 03:01:04;;;;;;;0.70;0.70;;;18.10;99.90;18.10;101569.00;;;;5035342;28;20209;-70
2022/07/21 03:03:50;;;;;;;0.73;0.73;;;18.10;99.90;18.30;101569.00;;;;5034654;28;20202;-69
2022/07/21 03:06:37;;;;;;;0.50;0.50;;;18.00;99.90;18.40;101563.00;;;;5035126;28;20182;-70
2022/07/21 03:09:31;;;;;;;0.50;0.50;;;18.10;99.90;18.50;101567.00;;;;5035568;28;20592;-70
2022/07/21 03:12:36;;;;;;;0.93;0.87;;;18.20;99.90;18.30;101553.00;;;;5035080;28;20263;-69
2022/07/21 03:15:19;;;;;;;0.80;0.80;;;18.20;99.90;18.30;101550.00;;;;5034973;28;20185;-69
2022/07/21 03:18:03;;;;;;;1.43;1.33;;;18.10;99.90;18.20;101553.00;;;;5051442;28;20624;-69
2022/07/21 03:20:49;;;;;;;0.57;0.57;;;18.10;99.90;18.60;101556.00;;;;5038769;28;20189;-69
2022/07/21 03:23:56;;;;;;;0.50;0.50;;;18.20;99.90;19.00;101559.00;;;;5038389;28;20185;-69
2022/07/21 03:26:49;;;;;;;0.70;0.70;;;18.40;99.90;18.90;101563.00;;;;5045396;28;20188;-70
2022/07/21 03:29:33;;;;;;;0.70;0.70;;;18.40;99.90;19.20;101570.00;;;;5038550;28;20193;-70
2022/07/21 03:32:17;;;;;;;0.83;0.83;;;18.60;99.90;18.70;101568.00;;;;5071502;28;20308;-70
2022/07/21 03:35:24;;;;;;;3.60;3.47;;;18.50;99.90;18.70;101584.00;;;;5071819;28;20189;-70
2022/07/21 03:38:13;;;;;;;2.30;2.20;;;18.40;99.90;19.50;101587.00;;;;5038327;28;20537;-70
2022/07/21 03:41:03;;;;;;;1.73;1.63;;;18.70;99.90;19.50;101584.00;;;;5055257;28;20178;-70
2022/07/21 03:43:49;;;;;;;1.37;1.27;;;19.00;99.90;19.70;101578.00;;;;5054747;28;20186;-70
2022/07/21 03:46:37;;;;;;;0.50;0.50;;;19.00;99.90;19.40;101577.00;;;;5055151;28;20219;-70
2022/07/21 03:49:23;;;;;;;0.60;0.60;;;19.10;99.90;19.20;101576.00;;;;5038543;28;20248;-70
2022/07/21 03:52:09;;;;;;;0.50;0.50;;;18.90;99.90;19.20;101579.00;;;;5055853;28;20248;-70
2022/07/21 03:55:07;;;;;;;0.50;0.50;;;18.80;99.90;19.30;101584.00;;;;5054466;28;20225;-70
2022/07/21 03:58:09;;;;;;;0.93;0.93;;;18.80;99.90;19.40;101575.00;;;;5060086;28;20194;-70
2022/07/21 04:00:53;;;;;;;0.40;0.40;;;18.90;99.90;19.60;101556.00;;;;5057938;28;20223;-70
2022/07/21 04:03:36;;;;;;;0.40;0.40;;;19.00;99.90;19.40;101573.00;;;;5074435;28;20244;-70
2022/07/21 04:06:34;;;;;;;0.40;0.40;;;19.00;99.90;19.40;101574.00;;;;5074915;28;20665;-70
2022/07/21 04:09:18;;;;;;;0.40;0.40;;;19.00;99.90;19.30;101573.00;;;;5057828;28;20553;-70
2022/07/21 04:12:05;;;;;;;0.40;0.40;;;18.90;99.90;19.60;101554.00;;;;5058097;28;20210;-70
2022/07/21 04:14:50;;;;;;;0.73;0.73;;;19.00;99.90;19.50;101568.00;;;;5057448;28;20232;-70
2022/07/21 04:17:35;;;;;;;1.90;1.80;;;19.10;99.90;19.20;101567.00;;;;5057712;28;20577;-70
2022/07/21 04:20:21;;;;;;;1.87;1.73;;;19.00;99.90;19.20;101567.00;;;;5057917;28;20229;-70
2022/07/21 04:23:07;;;;;;;0.50;0.50;;;19.00;99.90;19.20;101535.00;;;;5042731;28;20194;-69
2022/07/21 04:25:50;;;;;;;1.23;1.03;;;19.00;99.90;19.20;101537.00;;;;5057200;28;20229;-70
2022/07/21 04:28:36;;;;;;;0.40;0.40;;;18.90;99.90;19.20;101573.00;;;;5054490;28;20179;-70
2022/07/21 04:31:22;;;;;;;0.60;0.60;;;19.00;99.90;19.60;101548.00;;;;5037192;28;20262;-70
2022/07/21 04:34:28;;;;;;;1.30;0.83;;;19.10;99.90;19.40;101576.00;;;;5054664;28;20191;-71
2022/07/21 04:37:15;;;;;;;0.50;0.50;;;19.10;99.90;19.50;101569.00;;;;5042016;28;20174;-70
2022/07/21 04:39:59;;;;;;;0.60;0.60;;;19.10;99.90;19.00;101576.00;;;;5037480;28;20186;-70
2022/07/21 04:42:43;;;;;;;0.40;0.40;;;18.90;99.90;19.30;101571.00;;;;5037286;28;20643;-71
2022/07/21 04:45:29;;;;;;;4.93;1.90;;;18.90;99.90;19.20;101569.00;;;;5053690;28;20525;-71
2022/07/21 04:48:15;;;;;;;0.50;0.50;;;18.90;99.90;19.50;101577.00;;;;5037461;28;20179;-71
2022/07/21 04:50:58;;;;;;;0.40;0.40;;;18.90;99.90;19.50;101570.00;;;;5037011;28;20622;-71
2022/07/21 04:53:49;;;;;;;2.00;1.73;;;19.00;99.90;19.50;101550.00;;;;5037143;28;20199;-71
2022/07/21 04:56:56;;;;;;;1.13;1.13;;;19.00;99.90;19.80;101580.00;;;;5041485;28;20226;-71
2022/07/21 04:59:47;;;;;;;4.43;4.07;;;19.10;99.90;19.60;101581.00;;;;5056677;28;20238;-71
2022/07/21 05:02:39;;;;;;;0.63;0.63;;;19.10;99.90;19.90;101587.00;;;;5073635;28;20182;-71
2022/07/21 05:06:14;;;;;;;0.90;0.90;;;19.30;99.90;19.60;101585.00;;;;5057127;28;20658;-71
2022/07/21 05:08:54;;;;;;;0.50;0.50;;;19.30;99.90;19.30;101590.00;;;;4996445;28;20216;-72
2022/07/21 05:11:36;;;;;;;3.90;3.70;;;19.00;99.90;18.80;101601.00;;;;4984607;28;20233;-71
2022/07/21 05:29:55;;;;;;;1.23;1.23;;;18.70;99.90;19.40;101591.00;;;;4942049;28;20220;-72
2022/07/21 05:32:37;;;;;;;1.80;1.70;;;18.90;99.90;19.30;101569.00;;;;4948721;29;20234;-71
2022/07/21 05:35:35;;;;;;;0.70;0.70;;;18.90;99.90;19.30;101590.00;;;;4934560;29;20196;-73
2022/07/21 05:38:42;;;;;;;2.60;2.40;;;18.80;99.90;18.50;101580.00;;;;4862813;29;20231;-73
2022/07/21 05:41:46;;;;;;;1.00;1.00;;;18.60;99.90;18.80;101591.00;;;;4877379;29;20277;-74
2022/07/21 05:48:51;;;;;;;1.43;1.43;;;18.50;99.90;19.20;101595.00;;;;4871302;29;20318;-71
2022/07/21 05:52:49;;;;;;;1.07;1.07;;;18.70;99.90;18.90;101605.00;;;;4860814;29;20199;-72
2022/07/21 05:55:45;;;;;;;1.73;1.63;;;18.70;99.90;18.60;101603.00;;;;4867231;29;20285;-71
2022/07/21 05:59:15;;;;;;;3.13;2.87;;;18.40;99.90;18.40;101609.00;;;;4843422;29;20206;-72
2022/07/21 06:02:01;;;;;;;2.90;2.70;;;18.20;99.90;18.30;101583.00;;;;4858956;29;20590;-73
2022/07/21 06:04:55;;;;;;;2.60;2.40;;;18.20;99.90;18.10;101619.00;;;;4878632;29;20206;-70
2022/07/21 06:07:50;;;;;;;4.23;2.37;;;18.10;99.90;18.00;101589.00;;;;4890169;28;20276;-71
2022/07/21 06:10:54;;;;;;;1.87;1.77;;;18.00;99.90;17.80;101629.00;;;;4960187;28;20702;-69
2022/07/21 06:13:59;;;;;;;1.33;1.33;;;17.90;99.90;18.10;101598.00;;;;4975407;28;20233;-69
2022/07/21 06:16:44;;;;;;;3.43;2.43;;;18.00;99.90;18.40;101628.00;;;;4975698;28;20184;-68
2022/07/21 06:19:33;;;;;;;1.10;1.10;;;18.10;99.90;18.60;101598.00;;;;4959635;28;20186;-69
2022/07/21 06:22:35;;;;;;;4.50;4.10;;;18.20;99.90;18.00;101638.00;;;;5012663;28;20240;-69
2022/07/21 06:25:21;;;;;;;4.00;3.77;;;18.00;99.90;18.30;101636.00;;;;5051904;28;20180;-71
2022/07/21 06:28:23;;;;;;;6.03;5.43;;;18.10;99.90;18.10;101632.00;;;;5063717;28;20564;-71
2022/07/21 06:31:09;;;;;;;13.07;7.60;;;18.00;99.90;18.20;101641.00;;;;5055241;28;20191;-71
2022/07/21 06:33:55;;;;;;;4.73;3.37;;;18.00;99.90;18.30;101603.00;;;;5071869;28;20196;-70
2022/07/21 06:36:39;;;;;;;7.23;5.53;;;18.10;99.90;18.10;101634.00;;;;5071919;28;20227;-70
2022/07/21 06:39:08;;;;;;;13.03;6.80;;;18.10;99.90;18.20;101620.00;;;;5055043;28;20623;-70
2022/07/21 06:41:52;;;;;;;10.83;5.50;;;18.10;99.90;18.30;101652.00;;;;5054875;28;20251;-71
2022/07/21 06:44:53;;;;;;;0.97;0.97;;;18.20;99.90;18.40;101646.00;;;;5072056;28;20187;-71
2022/07/21 06:47:40;;;;;;;1.97;1.80;;;18.20;99.90;18.90;101661.00;;;;5054930;28;20180;-71
2022/07/21 06:50:36;;;;;;;9.30;6.47;;;18.40;99.90;19.10;101657.00;;;;5055267;28;20175;-71
2022/07/21 06:53:28;;;;;;;3.73;3.43;;;18.60;99.90;19.20;101663.00;;;;5046955;28;20743;-71
2022/07/21 06:56:12;;;;;;;4.50;4.27;;;18.60;99.90;19.60;101669.00;;;;5075582;28;20180;-71
2022/07/21 06:59:03;;;;;;;0.80;0.80;;;18.80;99.90;19.40;101664.00;;;;5059285;28;20173;-71
2022/07/21 07:01:46;;;;;;;1.00;1.00;;;18.80;99.90;19.90;101637.00;;;;5075610;28;20176;-70
2022/07/21 07:04:48;;;;;;;1.30;1.30;;;19.00;99.90;20.10;101661.00;;;;5075598;28;20204;-70
2022/07/21 07:07:49;;;;;;;1.03;1.03;;;19.20;99.90;19.90;101668.00;;;;5058952;28;20200;-72
2022/07/21 07:10:35;;;;;;;4.20;3.30;;;19.10;99.90;20.30;101669.00;;;;5075308;28;20271;-72
2022/07/21 07:13:21;;;;;;;1.20;1.20;;;19.40;99.90;20.20;101637.00;;;;5075405;28;20280;-72
2022/07/21 07:16:07;;;;;;;1.40;1.40;;;19.40;99.90;20.20;101667.00;;;;5058790;28;20190;-72
2022/07/21 07:18:53;;;;;;;1.00;1.00;;;19.40;99.90;20.30;101661.00;;;;5058737;28;20182;-72
2022/07/21 07:21:37;;;;;;;8.70;7.83;;;19.50;99.90;19.90;101669.00;;;;5075294;28;20256;-72
2022/07/21 07:24:23;;;;;;;5.70;4.17;;;19.40;99.90;20.00;101662.00;;;;5058426;28;20180;-73
2022/07/21 07:27:20;;;;;;;1.10;1.10;;;19.30;99.90;20.10;101652.00;;;;5075159;28;20267;-73
2022/07/21 07:30:42;;;;;;;0.90;0.90;;;19.30;99.90;20.00;101670.00;;;;5058350;28;20177;-72
2022/07/21 07:33:50;;;;;;;1.30;1.30;;;19.40;99.90;20.20;101679.00;;;;5045543;28;20222;-73
2022/07/21 07:36:54;;;;;;;1.10;1.10;;;19.40;99.90;20.20;101675.00;;;;5054037;28;20204;-74
2022/07/21 07:40:05;;;;;;;1.20;1.20;;;19.40;99.90;20.10;101680.00;;;;5067213;28;20241;-74
2022/07/21 07:43:07;;;;;;;1.53;1.53;;;19.40;99.90;19.90;101693.00;;;;5075421;28;20168;-74
2022/07/21 07:46:00;;;;;;;1.30;1.30;;;19.30;99.90;20.10;101679.00;;;;5057488;28;20272;-74
2022/07/21 07:49:03;;;;;;;3.03;2.23;;;19.40;99.90;19.40;101687.00;;;;5073917;28;20647;-74
2022/07/21 07:56:03;;;;;;;1.50;1.50;;;19.10;99.90;19.80;101687.00;;;;5054881;28;20193;-74
2022/07/21 07:59:12;;;;;;;1.40;1.40;;;19.10;99.90;19.60;101581.00;;;;5071708;28;20267;-74
2022/07/21 08:02:22;;;;;;;1.27;1.27;;;19.20;99.90;20.00;101692.00;;;;5060221;28;20172;-74
2022/07/21 08:05:41;;;;;;;9.70;6.77;;;19.20;99.90;19.80;101687.00;;;;5073707;28;20216;-73
2022/07/21 08:09:01;;;;;;;3.60;1.67;;;19.20;99.90;19.60;101681.00;;;;5074316;28;20219;-73
2022/07/21 08:12:22;;;;;;;1.50;1.50;;;19.20;99.90;19.60;101705.00;;;;5074317;28;20664;-73
2022/07/21 08:15:31;;;;;;;2.90;2.73;;;19.10;99.90;19.60;101700.00;;;;5079760;28;20194;-73
2022/07/21 08:18:50;;;;;;;2.83;2.63;;;19.10;99.90;19.20;101702.00;;;;5069486;28;20191;-74
2022/07/21 08:21:56;;;;;;;4.43;4.03;;;18.90;99.90;19.00;101682.00;;;;5070546;28;20205;-72
2022/07/21 08:28:57;;;;;;;1.03;1.03;;;18.80;99.90;19.50;101709.00;;;;5063308;28;20192;-71
2022/07/21 08:32:07;;;;;;;7.10;4.93;;;18.80;99.90;19.50;101714.00;;;;5073830;28;20629;-69
2022/07/21 08:35:15;;;;;;;1.60;1.60;;;18.90;99.90;19.30;101714.00;;;;5074369;28;20251;-70
2022/07/21 08:37:56;;;;;;;4.67;4.30;;;18.90;99.90;19.00;101715.00;;;;5056791;28;20265;-67
2022/07/21 08:40:50;;;;;;;1.87;1.77;;;18.70;99.90;19.40;101732.00;;;;5057122;28;20185;-72
2022/07/21 08:43:56;;;;;;;1.23;1.23;;;18.80;99.90;19.70;101736.00;;;;5056998;28;20182;-70
2022/07/21 08:46:51;;;;;;;2.33;2.23;;;18.90;99.90;19.80;101729.00;;;;5047019;28;20191;-71
2022/07/21 08:49:44;;;;;;;1.50;1.50;;;19.10;99.90;19.80;101743.00;;;;5057019;28;20195;-70
2022/07/21 08:52:43;;;;;;;1.50;1.50;;;19.20;99.90;20.20;101716.00;;;;5056944;28;20212;-70
2022/07/21 08:55:10;;;;;;;2.77;2.57;;;19.30;99.90;19.90;101722.00;;;;5071639;28;20216;-69
2022/07/21 08:58:00;;;;;;;2.10;2.07;;;19.30;99.90;19.80;101723.00;;;;5056486;28;20622;-69
2022/07/21 09:00:54;;;;;;;1.40;1.40;;;19.20;99.90;20.00;101729.00;;;;5073372;28;20182;-70
2022/07/21 09:03:46;;;;;;;1.67;1.67;;;19.20;99.90;19.40;101730.00;;;;5073749;28;20212;-69
2022/07/21 09:07:08;;;;;;;1.30;1.30;;;19.00;99.90;19.60;101737.00;;;;5056493;28;20195;-70
2022/07/21 09:09:40;;;;;;;1.57;1.53;;;19.10;99.90;19.80;101738.00;;;;5054049;28;20184;-68
2022/07/21 09:12:21;;;;;;;1.10;1.10;;;19.10;99.90;19.90;101738.00;;;;5053728;28;20688;-67
2022/07/21 09:15:18;;;;;;;1.40;1.40;;;19.30;99.90;20.10;101718.00;;;;5052256;28;20223;-67
2022/07/21 09:18:15;;;;;;;1.10;1.10;;;19.40;99.90;20.40;101740.00;;;;5042366;28;20229;-67
2022/07/21 09:20:59;;;;;;;1.10;1.10;;;19.50;99.90;20.40;101705.00;;;;5051805;28;20246;-66
2022/07/21 09:23:31;;;;;;;3.30;3.07;;;19.70;99.90;20.50;101734.00;;;;5063287;28;20251;-67
2022/07/21 09:26:03;;;;;;;1.77;1.77;;;19.70;99.90;20.30;101734.00;;;;5064728;28;20183;-67
2022/07/21 09:28:35;;;;;;;1.30;1.30;;;19.70;99.90;20.40;101738.00;;;;5048371;28;20186;-66
2022/07/21 09:31:13;;;;;;;2.07;2.07;;;19.70;99.90;20.20;101709.00;;;;5047735;28;20190;-67
2022/07/21 09:33:49;;;;;;;1.53;1.53;;;19.70;99.90;19.80;101736.00;;;;5065563;28;20259;-66
2022/07/21 09:36:20;;;;;;;4.00;3.70;;;19.60;99.90;19.20;101737.00;;;;5047810;28;20248;-65
2022/07/21 09:39:00;;;;;;;2.20;1.67;;;19.20;99.90;19.70;101746.00;;;;5086473;28;20177;-67
2022/07/21 09:41:36;;;;;;;3.90;2.50;;;19.10;99.90;19.80;101726.00;;;;5080139;28;20181;-66
2022/07/21 09:44:05;;;;;;;0.93;0.93;;;19.20;99.90;19.80;101731.00;;;;5075110;28;20202;-66
2022/07/21 09:46:43;;;;;;;1.87;1.77;;;19.30;99.90;19.50;101751.00;;;;5067779;28;20191;-65
2022/07/21 09:49:09;;;;;;;1.30;1.30;;;19.20;99.90;19.60;101746.00;;;;5053899;28;20204;-66
2022/07/21 09:52:01;;;;;;;1.47;1.43;;;19.30;99.90;19.70;101753.00;;;;5071010;28;20206;-68
2022/07/21 09:54:30;;;;;;;1.00;1.00;;;19.20;99.90;20.20;101754.00;;;;5049203;28;20185;-68
2022/07/21 09:57:15;;;;;;;8.23;3.63;;;19.50;99.90;20.00;101757.00;;;;5042678;28;20196;-68
2022/07/21 09:59:46;;;;;;;8.97;4.90;;;19.50;99.90;19.90;101744.00;;;;5041164;28;20192;-68
2022/07/21 10:02:37;;;;;;;0.80;0.80;;;19.50;99.90;19.60;101765.00;;;;5063859;28;20205;-68
2022/07/21 10:05:20;;;;;;;6.07;3.10;;;19.30;99.90;19.50;101765.00;;;;5064288;28;20177;-68
2022/07/21 10:08:06;;;;;;;4.50;2.93;;;19.20;99.90;18.90;101780.00;;;;5052205;28;20213;-68
2022/07/21 10:10:35;;;;;;;1.10;1.10;;;18.90;99.90;18.80;101753.00;;;;5035617;28;20279;-68
2022/07/21 10:13:01;;;;;;;7.90;5.87;;;18.70;99.90;19.20;101782.00;;;;5062120;28;20217;-68
2022/07/21 10:15:31;;;;;;;3.27;3.03;;;18.80;99.90;18.80;101790.00;;;;5071415;28;20194;-68
2022/07/21 10:18:19;;;;;;;1.27;0.93;;;18.60;99.90;18.60;101787.00;;;;5053941;28;20232;-68
2022/07/21 10:33:24;;;;;;;0.60;0.60;;;18.10;99.90;18.70;101829.00;;;;5027756;27;4071896;-67
2022/07/21 10:36:11;;;;;;;1.73;1.70;;;18.40;99.90;19.30;101794.00;;;;5104771;28;20207;-67
2022/07/21 10:39:26;;;;;;;1.53;1.43;;;18.70;99.90;19.30;101819.00;;;;5072539;28;20617;-66
2022/07/21 10:42:16;;;;;;;1.47;1.37;;;18.70;99.90;19.40;101830.00;;;;4994361;28;20233;-66
2022/07/21 10:44:48;;;;;;;4.40;4.00;;;18.80;99.90;18.80;101823.00;;;;5000521;28;20599;-66
2022/07/21 10:47:38;;;;;;;1.43;1.33;;;18.70;99.90;19.30;101830.00;;;;5006703;28;20209;-67
2022/07/21 10:50:36;;;;;;;3.13;2.93;;;18.80;99.90;18.80;101826.00;;;;5029576;28;20289;-67
2022/07/21 10:53:05;;;;;;;4.60;4.20;;;18.60;99.90;18.90;101828.00;;;;5014743;28;20239;-67
2022/07/21 10:55:53;;;;;;;1.10;1.10;;;18.60;99.90;19.60;101826.00;;;;5031382;28;20217;-67
2022/07/21 10:58:48;;;;;;;1.20;1.20;;;18.90;99.90;19.90;101832.00;;;;5014825;28;20217;-68
2022/07/21 11:05:05;;;;;;;6.50;5.30;;;18.70;99.90;18.70;101846.00;;;;5032934;28;20207;-68
2022/07/21 11:08:13;;;;;;;2.33;2.23;;;18.50;99.90;19.40;101841.00;;;;5010657;28;20201;-68
2022/07/21 11:11:12;;;;;;;0.97;0.97;;;18.70;99.90;19.80;101844.00;;;;5030721;28;20239;-68
2022/07/21 11:14:10;;;;;;;4.43;3.17;;;19.00;99.90;19.50;101847.00;;;;5031776;28;20184;-68
2022/07/21 11:17:05;;;;;;;1.10;1.10;;;18.90;99.90;19.70;101843.00;;;;5030915;28;20182;-68
2022/07/21 11:19:57;;;;;;;0.80;0.80;;;19.00;99.90;19.60;101842.00;;;;5102197;28;20190;-68
2022/07/21 11:22:54;;;;;;;0.90;0.90;;;19.00;99.90;19.90;101844.00;;;;5110489;28;20709;-68
2022/07/21 11:25:58;;;;;;;1.00;1.00;;;19.10;99.90;20.00;101834.00;;;;5110151;28;20532;-68
2022/07/21 11:29:21;;;;;;;2.43;2.33;;;19.20;99.90;19.60;101849.00;;;;5128577;27;20270;-69
2022/07/21 11:32:23;;;;;;;0.90;0.90;;;19.20;99.90;19.80;101851.00;;;;5090351;28;20250;-68
2022/07/21 11:35:45;;;;;;;1.03;1.03;;;19.20;99.90;19.80;101843.00;;;;5088345;28;20217;-68
2022/07/21 11:39:03;;;;;;;1.57;1.53;;;19.10;99.90;19.60;101853.00;;;;5088359;28;20199;-68
2022/07/21 11:42:24;;;;;;;1.20;1.20;;;19.20;99.90;19.90;101852.00;;;;5071230;28;20549;-68
2022/07/21 11:45:46;;;;;;;1.00;1.00;;;19.20;99.90;20.20;101847.00;;;;5057892;28;20602;-68
2022/07/21 11:49:05;;;;;;;3.33;2.33;;;19.40;99.90;20.20;101852.00;;;;5075712;28;20267;-68
2022/07/21 11:52:17;;;;;;;1.77;1.67;;;19.50;99.90;20.20;101846.00;;;;5057697;28;20213;-67
2022/07/21 11:55:50;;;;;;;1.10;1.10;;;19.60;99.90;20.20;101857.00;;;;5075044;28;20194;-67
2022/07/21 11:59:10;;;;;;;1.20;1.20;;;19.50;99.90;20.50;101850.00;;;;5112090;28;20189;-68
2022/07/21 12:05:36;;;;;;;1.00;1.00;;;19.60;99.90;20.30;101815.00;;;;5095922;28;20273;-68
2022/07/21 12:08:55;;;;;;;1.20;1.20;;;19.70;99.90;20.40;101826.00;;;;5094551;28;20170;-68
2022/07/21 12:12:14;;;;;;;1.30;1.30;;;19.60;99.90;20.40;101854.00;;;;5094782;28;20205;-69
2022/07/21 12:15:01;;;;;;;1.20;1.20;;;19.70;99.90;20.10;101825.00;;;;5094292;28;20175;-68
2022/07/21 12:18:37;;;;;;;2.13;1.93;;;19.50;99.90;20.40;101863.00;;;;5100733;28;20201;-68
2022/07/21 12:21:51;;;;;;;2.47;2.37;;;19.70;99.90;20.20;101862.00;;;;5091992;28;20298;-68
2022/07/21 12:24:55;;;;;;;2.60;2.50;;;19.70;99.90;20.30;101877.00;;;;5095520;28;20250;-68
2022/07/21 12:28:15;;;;;;;1.20;1.20;;;19.70;99.90;20.10;101879.00;;;;5094431;28;20279;-68
2022/07/21 12:31:01;;;;;;;1.87;1.60;;;19.70;99.90;20.40;101877.00;;;;5076882;28;20280;-68
2022/07/21 12:34:24;;;;;;;1.20;1.20;;;19.80;99.90;20.50;101883.00;;;;5095429;28;20248;-68
2022/07/21 12:37:48;;;;;;;1.20;1.20;;;19.80;99.90;20.70;101887.00;;;;5094479;28;20269;-68
2022/07/21 12:41:14;;;;;;;1.35;1.35;;;20.00;99.90;20.90;101877.00;;;;5098470;28;20706;-68
2022/07/21 12:44:18;;;;;;;1.20;1.20;;;20.10;99.90;20.70;101871.00;;;;5097411;28;20192;-68
2022/07/21 12:50:39;;;;;;;1.10;1.10;;;20.00;99.90;20.90;101887.00;;;;5114288;28;20539;-68
2022/07/21 12:53:47;;;;;;;1.40;1.40;;;20.10;99.90;21.10;101881.00;;;;5114421;28;20202;-68
2022/07/21 12:57:06;;;;;;;1.60;1.60;;;20.40;99.90;20.60;101872.00;;;;5112949;28;20217;-68
2022/07/21 13:00:28;;;;;;;1.40;1.40;;;20.30;99.90;20.90;101851.00;;;;5094934;28;20182;-68
2022/07/21 13:03:29;;;;;;;1.60;1.60;;;20.30;99.90;20.90;101885.00;;;;5092734;28;20237;-67
2022/07/21 13:06:38;;;;;;;1.40;1.40;;;20.30;99.90;21.20;101881.00;;;;5093198;28;20182;-68
2022/07/21 13:09:59;;;;;;;1.10;1.10;;;20.40;99.90;21.00;101879.00;;;;5093450;28;20190;-68
2022/07/21 13:13:18;;;;;;;1.27;1.27;;;20.50;99.90;20.80;101883.00;;;;5093015;28;20221;-68
2022/07/21 13:16:43;;;;;;;2.23;2.13;;;20.30;99.90;21.50;101884.00;;;;5093290;28;20169;-68
2022/07/21 13:20:05;;;;;;;1.83;1.73;;;20.70;99.90;21.70;101886.00;;;;5094267;28;20634;-68
2022/07/21 13:23:08;;;;;;;1.20;1.20;;;21.00;99.90;21.70;101865.00;;;;5072900;28;20179;-68
2022/07/21 13:26:19;;;;;;;1.10;1.10;;;21.20;99.90;21.70;101870.00;;;;5072821;28;20164;-67
2022/07/21 13:29:27;;;;;;;1.15;1.15;;;21.20;99.90;21.90;101888.00;;;;5074044;28;20180;-67
2022/07/21 13:32:48;;;;;;;1.20;1.20;;;21.20;99.90;21.70;101886.00;;;;5072558;28;20212;-67
2022/07/21 13:35:55;;;;;;;1.27;1.27;;;21.20;99.90;21.40;101871.00;;;;5073787;28;20220;-67
2022/07/21 13:39:13;;;;;;;1.10;1.10;;;21.10;99.90;21.50;101890.00;;;;5070567;28;20329;-68